Time;durP1;ratioP1;P1;durP2;ratioP2;P2;SDS_P1;SDS_P2;PMS_P1;PMS_P2;Temp;Humidity;BMP_temperature;BMP_pressure;BME280_temperature;BME280_humidity;BME280_pressure;Samples;Min_cycle;Max_cycle;Signal;HPM_P1;HPM_P2
2023/01/11 00:00:08;;;;;;;6.07;4.18;;;9.20;99.90;;;;;;5040395;28;20087;-83
2023/01/11 00:02:33;;;;;;;8.18;4.70;;;9.20;99.90;;;;;;5054014;28;20017;-83
2023/01/11 00:04:59;;;;;;;8.35;5.18;;;9.30;99.90;;;;;;5053611;28;20037;-83
2023/01/11 00:07:25;;;;;;;6.55;4.88;;;9.30;99.90;;;;;;5035657;28;20017;-83
2023/01/11 00:09:50;;;;;;;5.95;4.38;;;9.30;99.90;;;;;;5035632;28;20025;-84
2023/01/11 00:12:16;;;;;;;8.30;5.28;;;9.30;99.90;;;;;;5053729;28;20032;-84
2023/01/11 00:14:41;;;;;;;7.88;5.07;;;9.30;99.90;;;;;;5035926;28;20082;-83
2023/01/11 00:17:08;;;;;;;8.15;5.30;;;9.40;99.90;;;;;;5053628;28;20032;-84
2023/01/11 00:19:33;;;;;;;8.40;5.80;;;9.40;99.90;;;;;;5053445;28;20032;-84
2023/01/11 00:21:59;;;;;;;9.13;4.82;;;9.40;99.90;;;;;;5053700;28;20025;-84
2023/01/11 00:24:24;;;;;;;9.90;5.57;;;9.50;99.90;;;;;;5035177;28;20082;-83
2023/01/11 00:26:50;;;;;;;6.93;5.32;;;9.50;99.90;;;;;;5053487;28;20115;-83
2023/01/11 00:29:16;;;;;;;10.38;5.82;;;9.50;99.90;;;;;;5035757;28;20470;-83
2023/01/11 00:31:41;;;;;;;10.15;5.78;;;9.50;99.90;;;;;;5035545;28;20017;-84
2023/01/11 00:34:07;;;;;;;10.02;6.35;;;9.50;99.90;;;;;;5035174;28;20040;-83
2023/01/11 00:36:33;;;;;;;10.48;6.35;;;9.60;99.90;;;;;;5034829;28;20037;-84
2023/01/11 00:39:00;;;;;;;8.45;5.97;;;9.60;99.90;;;;;;5035243;28;20021;-84
2023/01/11 00:49:43;;;;;;;6.57;4.88;;;9.60;99.90;;;;;;5047025;28;20071;-83
2023/01/11 00:52:09;;;;;;;7.65;4.50;;;9.70;99.90;;;;;;5041078;28;20411;-83
2023/01/11 00:54:38;;;;;;;7.25;4.55;;;9.70;99.90;;;;;;5042470;28;20035;-83
2023/01/11 00:57:06;;;;;;;11.05;5.68;;;9.70;99.90;;;;;;5038542;28;20059;-83
2023/01/11 00:59:35;;;;;;;6.88;5.13;;;9.70;99.90;;;;;;5042574;28;20024;-83
2023/01/11 01:02:03;;;;;;;7.53;4.47;;;9.70;99.90;;;;;;5042224;28;20525;-84
2023/01/11 01:04:29;;;;;;;11.15;5.47;;;9.70;99.90;;;;;;5052124;28;20033;-83
2023/01/11 01:06:54;;;;;;;9.07;4.97;;;9.70;99.90;;;;;;5042629;28;20028;-83
2023/01/11 01:09:20;;;;;;;11.20;5.25;;;9.70;99.90;;;;;;5051690;28;20035;-84
2023/01/11 01:11:46;;;;;;;9.40;4.60;;;9.80;99.90;;;;;;5042193;28;20390;-83
2023/01/11 01:14:24;;;;;;;7.40;4.70;;;9.80;99.90;;;;;;5042082;28;20075;-83
2023/01/11 01:16:51;;;;;;;8.90;4.53;;;9.80;99.90;;;;;;5040281;28;20032;-82
2023/01/11 01:19:17;;;;;;;7.75;5.00;;;9.80;99.90;;;;;;5051817;28;20048;-83
2023/01/11 01:21:43;;;;;;;9.02;4.80;;;9.80;99.90;;;;;;5039351;28;20059;-82
2023/01/11 01:24:08;;;;;;;5.22;4.07;;;9.90;99.90;;;;;;5042063;28;20033;-82
2023/01/11 01:26:34;;;;;;;8.23;4.90;;;9.90;99.90;;;;;;5052455;28;20013;-82
2023/01/11 01:29:00;;;;;;;5.45;3.80;;;9.90;99.90;;;;;;5052823;28;20375;-83
2023/01/11 01:31:26;;;;;;;6.00;3.22;;;9.90;99.90;;;;;;5052657;28;20525;-83
2023/01/11 01:33:51;;;;;;;5.20;4.15;;;9.90;99.90;;;;;;5052810;28;20543;-83
2023/01/11 01:36:17;;;;;;;6.93;3.50;;;10.00;99.90;;;;;;5052705;28;20390;-82
2023/01/11 01:38:42;;;;;;;5.20;3.97;;;9.90;99.90;;;;;;5066839;28;20530;-83
2023/01/11 01:41:11;;;;;;;7.15;3.83;;;10.00;99.90;;;;;;5052898;28;20032;-83
2023/01/11 01:43:51;;;;;;;5.93;3.47;;;10.00;99.90;;;;;;5034187;28;20542;-84
2023/01/11 01:46:18;;;;;;;4.47;3.40;;;10.00;99.90;;;;;;5052461;28;20021;-83
2023/01/11 01:48:51;;;;;;;4.70;3.33;;;10.00;99.90;;;;;;5052444;28;20451;-84
2023/01/11 01:51:33;;;;;;;4.93;3.20;;;10.00;99.90;;;;;;5052159;28;20040;-82
2023/01/11 01:54:04;;;;;;;4.57;3.25;;;10.00;99.90;;;;;;5052333;28;20028;-83
2023/01/11 01:56:37;;;;;;;4.68;3.13;;;10.00;99.90;;;;;;5034321;28;20067;-82
2023/01/11 01:59:11;;;;;;;6.30;3.45;;;10.10;99.90;;;;;;5052149;28;20021;-83
2023/01/11 02:01:46;;;;;;;5.05;4.00;;;10.00;99.90;;;;;;5034055;28;20375;-83
2023/01/11 02:04:28;;;;;;;5.60;3.15;;;10.10;99.90;;;;;;5052391;28;20029;-84
2023/01/11 02:07:06;;;;;;;5.70;3.20;;;10.10;99.90;;;;;;5052283;28;20025;-83
2023/01/11 02:09:40;;;;;;;5.50;3.42;;;10.10;99.90;;;;;;5052143;28;20379;-84
2023/01/11 02:12:07;;;;;;;4.55;2.90;;;10.10;99.90;;;;;;5036549;28;20040;-84
2023/01/11 02:14:35;;;;;;;3.80;2.58;;;10.10;99.90;;;;;;5071897;28;20522;-84
2023/01/11 02:17:01;;;;;;;4.32;3.08;;;10.10;99.90;;;;;;5034486;28;20025;-84
2023/01/11 02:19:42;;;;;;;3.17;2.40;;;10.20;99.90;;;;;;5034320;28;20040;-84
2023/01/11 02:22:34;;;;;;;4.50;3.25;;;10.10;99.90;;;;;;5052111;28;20028;-83
2023/01/11 02:25:15;;;;;;;3.17;2.85;;;10.20;99.90;;;;;;5052142;28;20124;-83
2023/01/11 02:28:03;;;;;;;3.78;2.95;;;10.20;99.90;;;;;;5034122;28;20028;-83
2023/01/11 02:30:36;;;;;;;3.63;2.58;;;10.20;99.90;;;;;;5034031;28;20021;-84
2023/01/11 02:33:23;;;;;;;4.15;2.65;;;10.10;99.90;;;;;;5034132;28;20032;-82
2023/01/11 02:36:26;;;;;;;3.78;2.70;;;10.20;99.90;;;;;;5051847;28;20033;-84
2023/01/11 02:39:26;;;;;;;3.85;2.90;;;10.20;99.90;;;;;;5033639;28;20540;-84
2023/01/11 02:45:14;;;;;;;2.85;2.20;;;10.20;99.90;;;;;;5024707;28;20052;-84
2023/01/11 02:47:54;;;;;;;3.28;2.30;;;10.20;99.90;;;;;;5051751;28;20017;-83
2023/01/11 02:50:33;;;;;;;4.03;3.10;;;10.20;99.90;;;;;;5051818;28;20082;-83
2023/01/11 02:53:27;;;;;;;3.22;2.70;;;10.30;99.90;;;;;;5033826;28;20032;-83
2023/01/11 02:55:58;;;;;;;5.60;3.03;;;10.30;99.90;;;;;;5033930;28;20029;-84
2023/01/11 02:58:28;;;;;;;2.40;2.10;;;10.30;99.90;;;;;;5052108;28;20024;-84
2023/01/11 03:00:57;;;;;;;3.00;2.70;;;10.30;99.90;;;;;;5033794;28;20068;-83
2023/01/11 03:03:26;;;;;;;4.20;2.63;;;10.30;99.90;;;;;;5033791;28;20017;-84
2023/01/11 03:06:06;;;;;;;3.55;2.70;;;10.30;99.90;;;;;;5033565;28;20514;-83
2023/01/11 03:09:09;;;;;;;4.28;2.33;;;10.40;99.90;;;;;;5055034;28;20032;-83
2023/01/11 03:14:27;;;;;;;3.10;2.55;;;10.40;99.90;;;;;;5055505;28;20051;-84
2023/01/11 03:17:30;;;;;;;3.92;2.78;;;10.40;99.90;;;;;;5055544;28;20475;-84
2023/01/11 03:20:06;;;;;;;3.83;2.28;;;10.40;99.90;;;;;;5055246;28;20025;-84
2023/01/11 03:23:11;;;;;;;2.75;2.55;;;10.50;99.90;;;;;;5037313;28;20482;-83
2023/01/11 03:26:17;;;;;;;3.75;2.60;;;10.50;99.90;;;;;;5055468;28;20087;-83
2023/01/11 03:29:19;;;;;;;3.47;2.40;;;10.50;99.90;;;;;;5051712;28;20033;-83
2023/01/11 03:31:50;;;;;;;3.72;2.85;;;10.50;99.90;;;;;;5024148;28;20528;-83
2023/01/11 03:34:22;;;;;;;3.28;2.63;;;10.60;99.90;;;;;;5032912;28;20102;-82
2023/01/11 03:36:58;;;;;;;3.83;2.60;;;10.60;99.90;;;;;;5036992;28;20055;-84
2023/01/11 03:39:33;;;;;;;4.00;3.60;;;10.60;99.90;;;;;;5054526;28;20029;-83
2023/01/11 03:42:03;;;;;;;3.60;2.92;;;10.60;99.90;;;;;;5054829;28;20114;-84
2023/01/11 03:44:33;;;;;;;3.58;2.58;;;10.70;99.90;;;;;;5036872;28;20198;-82
2023/01/11 03:47:07;;;;;;;4.57;2.90;;;10.70;99.90;;;;;;5037200;28;20020;-83
2023/01/11 03:49:41;;;;;;;3.72;2.85;;;10.70;99.90;;;;;;5036816;28;20171;-83
2023/01/11 03:52:11;;;;;;;4.32;2.70;;;10.70;99.90;;;;;;5036768;28;20115;-82
2023/01/11 03:54:39;;;;;;;4.97;3.22;;;10.70;99.90;;;;;;5036705;28;20033;-83
2023/01/11 03:57:15;;;;;;;3.70;2.75;;;10.70;99.90;;;;;;5036721;28;20025;-82
2023/01/11 03:59:41;;;;;;;2.80;2.20;;;10.70;99.90;;;;;;5036953;28;20016;-83
2023/01/11 04:02:17;;;;;;;3.33;2.08;;;10.70;99.90;;;;;;5053915;28;20104;-84
2023/01/11 04:04:43;;;;;;;2.90;2.13;;;10.80;99.90;;;;;;5036468;28;20124;-84
2023/01/11 04:07:08;;;;;;;2.80;2.17;;;10.80;99.90;;;;;;5036259;28;20111;-83
2023/01/11 04:09:34;;;;;;;3.80;2.50;;;10.80;99.90;;;;;;5054446;28;20064;-83
2023/01/11 04:11:59;;;;;;;3.67;2.90;;;10.80;99.90;;;;;;5054536;28;20491;-84
2023/01/11 04:14:25;;;;;;;3.70;2.15;;;10.80;99.90;;;;;;5036093;28;20056;-82
2023/01/11 04:16:51;;;;;;;3.53;2.47;;;10.90;99.90;;;;;;5036052;28;20355;-84
2023/01/11 04:19:16;;;;;;;4.15;2.40;;;10.90;99.90;;;;;;5054081;28;20068;-85
2023/01/11 04:21:42;;;;;;;3.13;2.38;;;10.90;99.90;;;;;;5036473;28;20021;-85
2023/01/11 04:24:07;;;;;;;3.17;2.25;;;10.90;99.90;;;;;;5053866;28;20033;-84
2023/01/11 04:26:33;;;;;;;2.65;2.22;;;11.00;99.90;;;;;;5036141;28;20028;-85
2023/01/11 04:28:58;;;;;;;3.17;2.47;;;10.90;99.90;;;;;;5053913;28;20356;-84
2023/01/11 04:31:24;;;;;;;2.88;2.40;;;11.00;99.90;;;;;;5036131;28;20102;-83
2023/01/11 04:33:49;;;;;;;3.78;2.63;;;11.00;99.90;;;;;;5036494;28;20094;-84
2023/01/11 04:36:15;;;;;;;3.75;2.90;;;11.00;99.90;;;;;;5053214;28;20116;-84
2023/01/11 04:38:41;;;;;;;3.40;2.70;;;11.00;99.90;;;;;;5035751;28;20037;-83
2023/01/11 04:43:54;;;;;;;3.78;3.03;;;11.10;99.90;;;;;;5053874;28;20086;-83
2023/01/11 04:46:20;;;;;;;5.35;3.95;;;11.10;99.90;;;;;;5035956;28;20025;-83
2023/01/11 04:48:45;;;;;;;4.78;3.63;;;11.10;99.90;;;;;;5053737;28;20095;-84
2023/01/11 04:51:11;;;;;;;4.15;3.53;;;11.20;99.90;;;;;;5035856;28;20033;-84
2023/01/11 04:53:37;;;;;;;7.00;3.65;;;11.10;99.90;;;;;;5053614;28;20043;-83
2023/01/11 04:56:03;;;;;;;6.55;3.38;;;11.10;99.90;;;;;;5035237;28;20473;-84
2023/01/11 04:58:30;;;;;;;4.88;3.78;;;11.10;99.90;;;;;;5053455;28;20066;-84
2023/01/11 05:00:55;;;;;;;5.57;4.00;;;11.10;99.90;;;;;;5053485;28;20024;-84
2023/01/11 05:03:21;;;;;;;5.45;3.97;;;11.10;99.90;;;;;;5052651;28;20021;-83
2023/01/11 05:06:00;;;;;;;5.82;4.13;;;11.20;99.90;;;;;;5053112;28;20037;-84
2023/01/11 05:08:28;;;;;;;4.65;3.70;;;11.20;99.90;;;;;;5035062;28;20041;-84
2023/01/11 05:10:56;;;;;;;5.18;4.45;;;11.20;99.90;;;;;;5035406;28;20025;-84
2023/01/11 05:13:40;;;;;;;5.50;4.88;;;11.20;99.90;;;;;;5053260;28;20029;-84
2023/01/11 05:16:26;;;;;;;6.45;4.85;;;11.10;99.90;;;;;;5053351;28;20032;-84
2023/01/11 05:18:54;;;;;;;8.45;5.93;;;11.20;99.90;;;;;;5053396;28;20447;-85
2023/01/11 05:21:23;;;;;;;9.48;6.38;;;11.20;99.90;;;;;;5035287;28;20021;-84
2023/01/11 05:23:48;;;;;;;8.40;6.75;;;11.20;99.90;;;;;;5053034;28;20040;-83
2023/01/11 05:26:17;;;;;;;9.13;7.53;;;11.20;99.90;;;;;;5035078;28;20021;-84
2023/01/11 05:28:43;;;;;;;9.35;7.05;;;11.20;99.90;;;;;;5052868;28;20086;-85
2023/01/11 05:31:09;;;;;;;7.72;6.57;;;11.20;99.90;;;;;;5034544;28;20032;-84
2023/01/11 05:33:35;;;;;;;8.13;7.13;;;11.20;99.90;;;;;;5052828;28;20025;-84
2023/01/11 05:36:14;;;;;;;10.18;7.93;;;11.20;99.90;;;;;;5034916;28;20047;-84
2023/01/11 05:38:41;;;;;;;12.20;8.18;;;11.20;99.90;;;;;;5034723;28;20041;-83
2023/01/11 05:41:09;;;;;;;10.23;6.82;;;11.20;99.90;;;;;;5034744;28;20449;-84
2023/01/11 05:45:27;;;;;;;9.95;6.65;;;11.20;99.90;;;;;;5052550;28;20020;-84
2023/01/11 05:46:25;;;;;;;11.00;7.85;;;11.20;99.90;;;;;;5048059;28;20079;-84
2023/01/11 05:48:52;;;;;;;11.40;8.32;;;11.20;99.90;;;;;;5050121;28;20063;-84
2023/01/11 05:51:20;;;;;;;11.40;7.13;;;11.10;99.90;;;;;;5049633;28;20090;-83
2023/01/11 05:53:45;;;;;;;7.88;5.82;;;11.20;99.90;;;;;;5049964;28;20021;-84
2023/01/11 05:56:11;;;;;;;9.23;6.15;;;11.10;99.90;;;;;;5049895;28;20556;-83
2023/01/11 05:58:36;;;;;;;10.45;6.13;;;11.20;99.90;;;;;;5031704;28;20120;-81
2023/01/11 06:01:03;;;;;;;10.00;5.60;;;11.20;99.90;;;;;;5049777;28;20407;-84
2023/01/11 06:03:28;;;;;;;11.43;6.28;;;11.10;99.90;;;;;;5049630;28;20035;-83
2023/01/11 06:05:54;;;;;;;11.82;5.70;;;11.10;99.90;;;;;;5049503;28;20033;-83
2023/01/11 06:08:20;;;;;;;17.25;6.65;;;11.10;99.90;;;;;;5031642;28;20021;-83
2023/01/11 06:10:53;;;;;;;9.52;5.32;;;11.00;99.90;;;;;;5031360;28;20425;-83
2023/01/11 06:13:26;;;;;;;11.02;4.88;;;11.00;99.90;;;;;;5048490;28;20060;-84
2023/01/11 06:15:51;;;;;;;15.02;5.28;;;11.00;99.90;;;;;;5032117;28;20048;-85
2023/01/11 06:18:17;;;;;;;14.38;5.13;;;11.00;99.90;;;;;;5050351;28;20049;-86
2023/01/11 06:20:43;;;;;;;11.30;5.05;;;10.90;99.90;;;;;;5062712;28;20091;-87
2023/01/11 06:23:08;;;;;;;13.00;4.53;;;10.90;99.90;;;;;;5072192;28;20086;-83
2023/01/11 06:25:36;;;;;;;12.07;4.72;;;10.80;99.90;;;;;;5054824;28;20394;-85
2023/01/11 06:28:03;;;;;;;11.27;5.22;;;10.80;99.90;;;;;;5048388;28;20029;-87
2023/01/11 06:30:29;;;;;;;10.10;4.50;;;10.80;99.90;;;;;;5052770;28;20057;-87
2023/01/11 06:32:55;;;;;;;12.20;3.55;;;10.80;99.90;;;;;;5052584;28;20387;-85
2023/01/11 06:35:20;;;;;;;13.38;4.35;;;10.70;99.90;;;;;;5036230;28;20482;-85
2023/01/11 06:37:46;;;;;;;11.18;2.78;;;10.70;99.90;;;;;;5033955;28;20049;-86
2023/01/11 06:40:12;;;;;;;12.50;2.88;;;10.70;99.90;;;;;;5052821;28;20037;-83
2023/01/11 06:42:38;;;;;;;18.70;3.30;;;10.60;99.90;;;;;;5037572;28;20020;-86
2023/01/11 06:45:04;;;;;;;11.90;2.90;;;10.70;99.90;;;;;;5054925;28;20123;-86
2023/01/11 06:47:29;;;;;;;11.07;3.15;;;10.60;99.90;;;;;;5054858;28;20027;-85
2023/01/11 06:49:55;;;;;;;14.15;3.05;;;10.60;99.90;;;;;;5054721;28;20501;-87
2023/01/11 06:52:20;;;;;;;13.57;2.50;;;10.50;99.90;;;;;;5055067;28;20028;-87
2023/01/11 06:54:46;;;;;;;12.65;2.67;;;10.50;99.90;;;;;;5055197;28;20051;-86
2023/01/11 06:57:11;;;;;;;12.90;2.20;;;10.50;99.90;;;;;;5054536;28;20597;-86
2023/01/11 06:59:38;;;;;;;15.65;3.03;;;10.50;99.90;;;;;;5054846;28;20103;-85
2023/01/11 07:02:04;;;;;;;16.25;2.75;;;10.50;99.90;;;;;;5054804;28;20091;-84
2023/01/11 07:04:30;;;;;;;17.60;3.20;;;10.50;99.90;;;;;;5036564;28;20028;-85
2023/01/11 07:06:56;;;;;;;12.45;2.65;;;10.50;99.90;;;;;;5054057;28;20025;-84
2023/01/11 07:09:22;;;;;;;13.20;3.15;;;10.50;99.90;;;;;;5036613;28;20052;-85
2023/01/11 07:11:47;;;;;;;17.65;3.53;;;10.40;99.90;;;;;;5056769;28;20037;-85
2023/01/11 07:14:18;;;;;;;15.90;2.55;;;10.40;99.90;;;;;;5054360;28;20391;-85
2023/01/11 07:16:44;;;;;;;13.82;3.40;;;10.40;99.90;;;;;;5054768;28;20017;-84
2023/01/11 07:19:10;;;;;;;18.15;2.92;;;10.40;99.90;;;;;;5036946;28;20032;-86
2023/01/11 07:21:35;;;;;;;16.33;2.83;;;10.30;99.90;;;;;;5038390;28;20013;-84
2023/01/11 07:24:01;;;;;;;16.25;2.72;;;10.30;99.90;;;;;;5037082;28;20029;-85
2023/01/11 07:26:28;;;;;;;11.98;2.30;;;10.30;99.90;;;;;;5036107;28;20479;-85
2023/01/11 07:28:54;;;;;;;13.57;2.75;;;10.30;99.90;;;;;;5053390;28;20028;-85
2023/01/11 07:31:19;;;;;;;14.70;2.67;;;10.20;99.90;;;;;;5053799;28;20025;-85
2023/01/11 07:33:45;;;;;;;16.85;3.75;;;10.20;99.90;;;;;;5036286;28;20471;-87
2023/01/11 07:36:11;;;;;;;13.57;2.78;;;10.20;99.90;;;;;;5035149;28;20021;-85
2023/01/11 07:38:36;;;;;;;16.67;2.53;;;10.10;99.90;;;;;;4990781;28;1307041;-86
2023/01/11 07:43:10;;;;;;;13.93;3.15;;;10.10;99.90;;;;;;5055161;28;20039;-87
2023/01/11 07:43:49;;;;;;;14.10;2.65;;;10.10;99.90;;;;;;5055081;28;20041;-87
2023/01/11 07:46:14;;;;;;;16.55;3.33;;;10.00;99.90;;;;;;5054941;28;20037;-85
2023/01/11 07:48:40;;;;;;;11.27;2.55;;;10.00;99.90;;;;;;5037144;28;20567;-86
2023/01/11 07:51:06;;;;;;;13.65;2.55;;;10.00;99.90;;;;;;5036730;28;20056;-86
2023/01/11 07:53:31;;;;;;;17.20;3.03;;;9.90;99.90;;;;;;5036173;28;20390;-85
2023/01/11 07:55:57;;;;;;;13.00;2.78;;;9.90;99.90;;;;;;5036603;28;20021;-84
2023/01/11 07:58:23;;;;;;;13.30;2.60;;;9.90;99.90;;;;;;5036095;28;20364;-85
2023/01/11 08:00:49;;;;;;;17.90;3.47;;;9.80;99.90;;;;;;5036002;28;20051;-86
2023/01/11 08:03:14;;;;;;;18.92;2.97;;;9.70;99.90;;;;;;5053387;28;20628;-86
2023/01/11 08:05:40;;;;;;;13.30;3.25;;;9.70;99.90;;;;;;5043652;28;20483;-85
2023/01/11 08:08:06;;;;;;;12.73;2.47;;;9.70;99.90;;;;;;5037025;28;20021;-88
2023/01/11 08:10:32;;;;;;;14.98;2.88;;;9.70;99.90;;;;;;5044326;28;20017;-86
2023/01/11 08:15:42;;;;;;;13.73;2.95;;;9.60;99.90;;;;;;5051249;28;20063;-86
2023/01/11 08:18:10;;;;;;;9.75;3.45;;;9.50;99.90;;;;;;5041370;28;20018;-87
2023/01/11 08:20:36;;;;;;;13.02;2.30;;;9.50;99.90;;;;;;5041308;28;20035;-87
2023/01/11 08:23:05;;;;;;;14.55;2.72;;;9.50;99.90;;;;;;5044700;28;20017;-86
2023/01/11 08:25:31;;;;;;;13.90;3.60;;;9.50;99.90;;;;;;5053181;28;20075;-87
2023/01/11 08:28:02;;;;;;;17.63;3.33;;;9.40;99.90;;;;;;5036365;28;20048;-85
2023/01/11 08:30:28;;;;;;;13.75;3.00;;;9.40;99.90;;;;;;5053543;28;20025;-84
2023/01/11 08:32:55;;;;;;;16.05;2.17;;;9.40;99.90;;;;;;5052812;28;20028;-86
2023/01/11 08:35:22;;;;;;;10.80;1.70;;;9.40;99.90;;;;;;5052857;28;20104;-85
2023/01/11 08:37:48;;;;;;;11.20;2.03;;;9.40;99.90;;;;;;5034620;28;20045;-86
2023/01/11 08:40:13;;;;;;;12.18;1.83;;;9.40;99.90;;;;;;5053530;28;20041;-85
2023/01/11 08:42:39;;;;;;;14.85;2.30;;;9.40;99.90;;;;;;5035562;28;20025;-87
2023/01/11 08:45:05;;;;;;;15.32;2.72;;;9.50;99.90;;;;;;5053827;28;20029;-86
2023/01/11 08:47:30;;;;;;;12.80;2.30;;;9.40;99.90;;;;;;5053184;28;20451;-86
2023/01/11 08:49:56;;;;;;;10.40;2.30;;;9.40;99.90;;;;;;5047994;28;20131;-85
2023/01/11 08:52:21;;;;;;;9.98;2.58;;;9.50;99.90;;;;;;5052857;28;20040;-84
2023/01/11 08:54:47;;;;;;;15.75;3.15;;;9.50;99.90;;;;;;5052533;28;20094;-85
2023/01/11 08:57:13;;;;;;;15.18;3.00;;;9.50;99.90;;;;;;5042022;28;20506;-84
2023/01/11 08:59:39;;;;;;;17.88;2.80;;;9.50;99.90;;;;;;5051203;28;20706;-84
2023/01/11 09:02:05;;;;;;;15.45;4.07;;;9.40;99.90;;;;;;5052439;28;20032;-86
2023/01/11 09:04:32;;;;;;;14.13;2.90;;;9.40;99.90;;;;;;5051199;28;20029;-86
2023/01/11 09:06:58;;;;;;;16.95;4.03;;;9.40;99.90;;;;;;5044402;28;20039;-85
2023/01/11 09:09:24;;;;;;;13.40;2.75;;;9.40;99.90;;;;;;5034366;28;20025;-85
2023/01/11 09:11:53;;;;;;;9.98;2.13;;;9.30;99.90;;;;;;5042660;28;20057;-85
2023/01/11 09:14:19;;;;;;;12.07;2.70;;;9.30;99.90;;;;;;5039487;28;20650;-85
2023/01/11 09:16:44;;;;;;;13.90;3.33;;;9.30;99.90;;;;;;5042282;28;20009;-85
2023/01/11 09:19:10;;;;;;;17.23;2.92;;;9.30;99.90;;;;;;5042077;28;20021;-86
2023/01/11 09:21:36;;;;;;;13.13;2.70;;;9.30;99.90;;;;;;5049721;28;20056;-87
2023/01/11 09:24:02;;;;;;;11.70;2.10;;;9.30;99.90;;;;;;5049334;28;20028;-86
2023/01/11 09:26:28;;;;;;;13.45;2.92;;;9.20;99.90;;;;;;5040129;28;20029;-86
2023/01/11 09:28:54;;;;;;;22.20;3.42;;;9.20;99.90;;;;;;5050258;28;20029;-85
2023/01/11 09:31:20;;;;;;;15.48;2.72;;;9.20;99.90;;;;;;5049830;28;20048;-85
2023/01/11 09:33:45;;;;;;;20.73;2.90;;;9.10;99.90;;;;;;5049664;28;20052;-85
2023/01/11 09:36:13;;;;;;;16.52;2.95;;;9.10;99.90;;;;;;5052153;28;20052;-85
2023/01/11 09:38:42;;;;;;;14.90;2.28;;;9.10;99.90;;;;;;5051500;28;20060;-85
2023/01/11 09:41:21;;;;;;;9.95;2.20;;;9.10;99.90;;;;;;5052939;28;20104;-85
2023/01/11 09:44:21;;;;;;;14.80;3.20;;;9.30;99.90;;;;;;5052647;28;20032;-85
2023/01/11 09:46:54;;;;;;;14.60;2.45;;;9.30;99.90;;;;;;5049867;28;20438;-86
2023/01/11 09:49:37;;;;;;;11.55;3.17;;;9.40;99.90;;;;;;5052614;28;20052;-84
2023/01/11 09:52:38;;;;;;;11.65;2.30;;;9.30;99.90;;;;;;5052291;28;20029;-84
2023/01/11 09:55:05;;;;;;;19.70;2.92;;;9.20;99.90;;;;;;5034602;28;20052;-86
2023/01/11 09:57:40;;;;;;;11.02;2.05;;;9.30;99.90;;;;;;5052259;28;20017;-84
2023/01/11 10:00:16;;;;;;;10.45;3.10;;;9.70;99.90;;;;;;5034319;28;20029;-85
2023/01/11 10:03:03;;;;;;;11.40;2.30;;;10.10;99.90;;;;;;5051676;28;20021;-85
2023/01/11 10:05:54;;;;;;;17.50;3.67;;;10.20;99.90;;;;;;5034356;28;20033;-85
2023/01/11 10:08:42;;;;;;;15.88;2.42;;;11.30;99.90;;;;;;5033504;28;20021;-84
2023/01/11 10:11:23;;;;;;;12.48;2.78;;;12.50;99.90;;;;;;5020253;28;20039;-85
2023/01/11 10:14:02;;;;;;;16.20;2.63;;;13.30;99.90;;;;;;5052036;28;20491;-85
2023/01/11 10:16:59;;;;;;;15.23;2.95;;;13.90;99.90;;;;;;5051803;28;20035;-85
2023/01/11 10:19:44;;;;;;;12.75;2.92;;;14.70;99.90;;;;;;5034138;28;20028;-86
2023/01/11 10:22:31;;;;;;;14.45;2.92;;;14.80;99.90;;;;;;5033980;28;20086;-86
2023/01/11 10:25:30;;;;;;;16.17;2.90;;;15.00;99.90;;;;;;5051958;28;20025;-86
2023/01/11 10:28:04;;;;;;;11.77;2.58;;;15.20;99.90;;;;;;5051421;28;20028;-84
2023/01/11 10:31:44;;;;;;;11.05;2.38;;;15.30;99.90;;;;;;5033772;28;20120;-85
2023/01/11 10:33:57;;;;;;;12.27;2.78;;;15.50;99.90;;;;;;5034322;28;20028;-86
2023/01/11 10:39:58;;;;;;;11.25;2.75;;;15.60;99.90;;;;;;5052034;28;20048;-86
2023/01/11 10:42:28;;;;;;;13.07;2.47;;;15.50;99.90;;;;;;5033902;28;20450;-85
2023/01/11 10:45:02;;;;;;;8.52;1.98;;;15.30;99.90;;;;;;5051365;28;20029;-87
2023/01/11 10:47:38;;;;;;;10.90;2.17;;;14.50;99.90;;;;;;5051272;28;20395;-86
2023/01/11 10:50:16;;;;;;;15.35;2.55;;;13.80;99.90;;;;;;5033873;28;20029;-86
2023/01/11 10:52:54;;;;;;;14.20;2.40;;;13.40;99.90;;;;;;5033722;28;20359;-86
2023/01/11 10:55:43;;;;;;;11.10;2.70;;;13.60;99.90;;;;;;5033926;28;20036;-87
2023/01/11 10:58:41;;;;;;;12.25;2.42;;;13.80;99.90;;;;;;5033865;28;20040;-86
2023/01/11 11:01:33;;;;;;;11.75;2.20;;;13.90;99.90;;;;;;5020717;28;20044;-86
2023/01/11 11:04:18;;;;;;;14.63;2.38;;;13.80;99.90;;;;;;5042659;28;20075;-86
2023/01/11 11:07:02;;;;;;;11.63;2.33;;;13.40;99.90;;;;;;5053318;28;20029;-86
2023/01/11 11:09:41;;;;;;;8.35;2.17;;;13.00;99.90;;;;;;5070964;28;20085;-87
2023/01/11 11:12:12;;;;;;;17.40;3.30;;;12.90;99.90;;;;;;5059060;28;20041;-85
2023/01/11 11:14:51;;;;;;;13.05;2.15;;;13.10;99.90;;;;;;5035818;28;20021;-86
2023/01/11 11:17:26;;;;;;;18.25;2.85;;;13.40;99.90;;;;;;5051017;28;20093;-85
2023/01/11 11:19:52;;;;;;;9.23;1.67;;;13.50;99.90;;;;;;5032898;28;20021;-85
2023/01/11 11:22:21;;;;;;;14.52;3.20;;;14.10;99.90;;;;;;5030247;28;20439;-84
2023/01/11 11:25:00;;;;;;;17.40;3.10;;;14.70;99.90;;;;;;5014805;28;20025;-86
2023/01/11 11:27:35;;;;;;;11.75;2.17;;;14.70;99.90;;;;;;5030102;28;20467;-85
2023/01/11 11:30:02;;;;;;;11.73;2.20;;;14.60;99.90;;;;;;5063569;28;20078;-85
2023/01/11 11:32:37;;;;;;;12.70;2.35;;;14.70;99.90;;;;;;5035663;28;20025;-84
2023/01/11 11:35:06;;;;;;;12.88;2.42;;;14.90;99.90;;;;;;5050183;28;20056;-87
2023/01/11 11:37:41;;;;;;;12.68;2.78;;;15.00;99.90;;;;;;5058432;28;20131;-87
2023/01/11 11:40:28;;;;;;;8.68;2.13;;;15.10;99.90;;;;;;5037366;28;20511;-87
2023/01/11 11:43:17;;;;;;;14.73;2.75;;;15.20;99.90;;;;;;5043468;28;20029;-85
2023/01/11 11:45:57;;;;;;;12.02;2.40;;;14.60;99.90;;;;;;5043268;28;20414;-84
2023/01/11 11:48:25;;;;;;;13.98;2.60;;;14.30;99.90;;;;;;5040697;28;20106;-83
2023/01/11 11:50:53;;;;;;;9.70;2.78;;;14.00;99.90;;;;;;5058942;28;20024;-85
2023/01/11 11:53:27;;;;;;;13.85;2.80;;;13.90;99.90;;;;;;5053689;28;20108;-83
2023/01/11 11:55:53;;;;;;;13.23;2.17;;;14.10;99.90;;;;;;5035626;28;20024;-82
2023/01/11 11:58:22;;;;;;;16.65;3.53;;;14.50;99.90;;;;;;5053215;28;20033;-80
2023/01/11 12:00:50;;;;;;;11.15;2.20;;;14.70;99.90;;;;;;5035730;28;20016;-83
2023/01/11 12:03:17;;;;;;;16.30;2.80;;;14.60;99.90;;;;;;5043203;28;20508;-84
2023/01/11 12:06:01;;;;;;;11.45;2.30;;;14.00;99.90;;;;;;5042794;28;20040;-84
2023/01/11 12:08:31;;;;;;;15.13;2.63;;;13.20;99.90;;;;;;5040953;28;20025;-83
2023/01/11 12:11:00;;;;;;;12.35;2.70;;;12.70;99.90;;;;;;5037995;28;20112;-83
2023/01/11 12:13:35;;;;;;;15.20;2.63;;;12.40;99.90;;;;;;5029123;28;20039;-82
2023/01/11 12:16:03;;;;;;;10.93;2.28;;;12.10;99.90;;;;;;5061178;28;20017;-82
2023/01/11 12:18:41;;;;;;;9.88;2.33;;;12.10;99.90;;;;;;5046272;28;20086;-83
2023/01/11 12:21:19;;;;;;;12.23;2.08;;;12.10;99.90;;;;;;5037702;28;20016;-83
2023/01/11 12:23:45;;;;;;;15.43;2.78;;;12.00;99.90;;;;;;5056630;28;20029;-83
2023/01/11 12:26:19;;;;;;;15.93;3.67;;;12.00;99.90;;;;;;5041928;28;20124;-83
2023/01/11 12:29:12;;;;;;;12.10;2.13;;;11.90;99.90;;;;;;5056358;28;20017;-83
2023/01/11 12:32:03;;;;;;;13.00;2.78;;;11.80;99.90;;;;;;5057950;28;20668;-83
2023/01/11 12:35:06;;;;;;;14.95;2.78;;;11.60;99.90;;;;;;5056047;28;20052;-83
2023/01/11 12:37:52;;;;;;;14.75;3.15;;;11.40;99.90;;;;;;5039288;28;20050;-83
2023/01/11 12:40:32;;;;;;;15.50;2.67;;;11.30;99.90;;;;;;5056023;28;20025;-83
2023/01/11 12:43:44;;;;;;;13.13;3.00;;;11.20;99.90;;;;;;5058236;28;20423;-83
2023/01/11 12:46:42;;;;;;;14.68;3.05;;;11.10;99.90;;;;;;5014294;28;20076;-83
2023/01/11 12:49:17;;;;;;;14.98;2.92;;;11.00;99.90;;;;;;5058159;28;20036;-85
2023/01/11 12:52:27;;;;;;;16.90;2.80;;;10.80;99.90;;;;;;5035464;28;20028;-84
2023/01/11 12:55:00;;;;;;;14.35;2.55;;;10.70;99.90;;;;;;5039412;28;20036;-82
2023/01/11 12:57:50;;;;;;;13.23;2.53;;;10.80;99.90;;;;;;5060941;28;20021;-81
2023/01/11 13:00:53;;;;;;;12.50;3.22;;;10.90;99.90;;;;;;5041239;28;20016;-84
2023/01/11 13:04:07;;;;;;;17.17;2.47;;;11.00;99.90;;;;;;5041463;28;20505;-84
2023/01/11 13:06:57;;;;;;;17.65;2.72;;;11.00;99.90;;;;;;5033200;28;20041;-83
2023/01/11 13:09:49;;;;;;;16.48;2.78;;;11.00;99.90;;;;;;5057506;28;20108;-83
2023/01/11 13:12:21;;;;;;;11.35;2.25;;;11.10;99.90;;;;;;5054582;28;20032;-84
2023/01/11 13:15:10;;;;;;;14.88;2.88;;;11.00;99.90;;;;;;5050744;28;20703;-83
2023/01/11 13:18:07;;;;;;;11.35;2.22;;;11.00;99.90;;;;;;5051456;28;20391;-83
2023/01/11 13:20:56;;;;;;;16.08;3.30;;;11.00;99.90;;;;;;5060089;28;20054;-82
2023/01/11 13:23:38;;;;;;;14.50;2.78;;;11.00;99.90;;;;;;5041773;28;20488;-83
2023/01/11 13:26:29;;;;;;;14.85;2.72;;;10.90;99.90;;;;;;5060849;28;20028;-83
2023/01/11 13:29:03;;;;;;;19.92;2.40;;;11.00;99.90;;;;;;5047890;28;20055;-83
2023/01/11 13:31:32;;;;;;;15.50;2.58;;;11.10;99.90;;;;;;5056449;28;20440;-83
2023/01/11 13:34:04;;;;;;;13.60;3.15;;;11.10;99.90;;;;;;5054672;28;20112;-84